Time;durP1;ratioP1;P1;durP2;ratioP2;P2;SDS_P1;SDS_P2;PMS_P1;PMS_P2;Temp;Humidity;BMP_temperature;BMP_pressure;BME280_temperature;BME280_humidity;BME280_pressure;Samples;Min_cycle;Max_cycle;Signal;HPM_P1;HPM_P2
2022/01/18 00:01:51;;;;;;;69.03;12.82;;;6.50;99.90;;;;;;5068944;28;20418;-77
2022/01/18 00:04:17;;;;;;;75.55;10.95;;;6.50;99.90;;;;;;5069453;28;20769;-74
2022/01/18 00:06:47;;;;;;;72.97;11.70;;;6.40;99.90;;;;;;5068850;28;20431;-74
2022/01/18 00:09:12;;;;;;;74.78;12.02;;;6.40;99.90;;;;;;5051720;28;20433;-75
2022/01/18 00:11:49;;;;;;;79.13;11.85;;;6.30;99.90;;;;;;5068258;28;20404;-75
2022/01/18 00:17:05;;;;;;;81.90;11.75;;;6.20;99.90;;;;;;5068370;28;20766;-75
2022/01/18 00:19:33;;;;;;;78.60;11.07;;;6.20;99.90;;;;;;5068078;28;20457;-75
2022/01/18 00:24:27;;;;;;;79.93;11.90;;;6.10;99.90;;;;;;5068379;28;20403;-75
2022/01/18 00:26:53;;;;;;;72.47;10.93;;;6.10;99.90;;;;;;5067598;28;20836;-75
2022/01/18 00:29:22;;;;;;;78.47;11.43;;;6.00;99.90;;;;;;5068385;28;20476;-75
2022/01/18 00:36:56;;;;;;;;;;;5.90;99.90;;;;;;5069789;28;20045;-75
2022/01/18 00:39:22;;;;;;;;;;;5.80;99.90;;;;;;5053119;28;19920;-75
2022/01/18 00:41:48;;;;;;;;;;;5.80;99.90;;;;;;5071135;28;19926;-75
2022/01/18 00:44:14;;;;;;;;;;;5.80;99.90;;;;;;5071065;28;19978;-75
2022/01/18 00:46:40;;;;;;;;;;;5.80;99.90;;;;;;5069357;28;19969;-75
2022/01/18 00:49:06;;;;;;;;;;;5.70;99.90;;;;;;5069673;28;19932;-75
2022/01/18 00:51:36;;;;;;;;;;;5.70;99.90;;;;;;5052598;28;19920;-75
2022/01/18 00:54:02;;;;;;;;;;;5.70;99.90;;;;;;5069309;28;19935;-75
2022/01/18 00:56:31;;;;;;;;;;;5.60;99.90;;;;;;5069620;28;19924;-75
2022/01/18 00:58:57;;;;;;;;;;;5.60;99.90;;;;;;5069473;28;19969;-75
2022/01/18 01:01:24;;;;;;;;;;;5.50;99.90;;;;;;5052585;28;19978;-75
2022/01/18 01:03:51;;;;;;;;;;;5.50;99.90;;;;;;5052828;28;19921;-75
2022/01/18 01:06:17;;;;;;;;;;;5.50;99.90;;;;;;5069110;28;19924;-75
2022/01/18 01:08:43;;;;;;;;;;;5.40;99.90;;;;;;5052732;28;19931;-75
2022/01/18 01:11:10;;;;;;;;;;;5.40;99.90;;;;;;5068893;28;19920;-75
2022/01/18 01:13:37;;;;;;;;;;;5.30;99.90;;;;;;5052829;28;20070;-75
2022/01/18 01:18:49;;;;;;;;;;;5.30;99.90;;;;;;5069142;28;19920;-75
2022/01/18 01:45:03;;;;;;;;;;;5.40;99.90;;;;;;5068423;28;20317;-76
2022/01/18 01:47:35;;;;;;;;;;;5.50;99.90;;;;;;5052106;28;19920;-75
2022/01/18 01:50:02;;;;;;;;;;;5.50;99.90;;;;;;5051698;28;19924;-75
2022/01/18 01:52:27;;;;;;;;;;;5.60;99.90;;;;;;5068551;28;19920;-75
2022/01/18 01:54:54;;;;;;;;;;;5.60;99.90;;;;;;5068024;28;20290;-75
2022/01/18 01:57:19;;;;;;;;;;;5.60;99.90;;;;;;5068699;28;20419;-76
2022/01/18 01:59:45;;;;;;;;;;;5.60;99.90;;;;;;5051841;28;19921;-75
2022/01/18 02:02:10;;;;;;;;;;;5.60;99.90;;;;;;5068588;28;19963;-76
2022/01/18 02:04:36;;;;;;;;;;;5.60;99.90;;;;;;5050535;28;19931;-75
2022/01/18 02:07:02;;;;;;;;;;;5.60;99.90;;;;;;5067441;28;20110;-75
2022/01/18 02:09:28;;;;;;;;;;;5.50;99.90;;;;;;5051444;28;19927;-76
2022/01/18 02:11:56;;;;;;;;;;;5.50;99.90;;;;;;5051417;28;19944;-75
2022/01/18 02:14:22;;;;;;;;;;;5.50;99.90;;;;;;5067852;28;19973;-75
2022/01/18 02:22:17;;;;;;;;;;;5.50;99.90;;;;;;5067811;28;20014;-76
2022/01/18 02:24:42;;;;;;;;;;;5.50;99.90;;;;;;5067970;28;20740;-75
2022/01/18 02:27:08;;;;;;;;;;;5.50;99.90;;;;;;5067976;28;20265;-75
2022/01/18 02:29:34;;;;;;;;;;;5.50;99.90;;;;;;5051470;28;20319;-75
2022/01/18 02:32:00;;;;;;;;;;;5.50;99.90;;;;;;5068090;28;19921;-76
2022/01/18 02:34:25;;;;;;;;;;;5.50;99.90;;;;;;5068109;28;20904;-76
2022/01/18 02:36:53;;;;;;;;;;;5.50;99.90;;;;;;5050982;28;19978;-76
2022/01/18 02:39:23;;;;;;;;;;;5.60;99.90;;;;;;5067595;28;19927;-76
2022/01/18 02:41:56;;;;;;;;;;;5.60;99.90;;;;;;5050498;28;19924;-76
2022/01/18 02:44:22;;;;;;;;;;;5.70;99.90;;;;;;5067994;28;19920;-76
2022/01/18 02:46:48;;;;;;;;;;;5.70;99.90;;;;;;5067321;28;19927;-76
2022/01/18 02:49:13;;;;;;;;;;;5.70;99.90;;;;;;5051083;28;19967;-76
2022/01/18 02:51:39;;;;;;;;;;;5.80;99.90;;;;;;5067869;28;19924;-76
2022/01/18 02:54:07;;;;;;;41.25;5.63;;;5.80;99.90;;;;;;5050121;28;19920;-76
2022/01/18 02:56:47;;;;;;;59.03;7.20;;;5.80;99.90;;;;;;5065966;28;20407;-75
2022/01/18 02:59:19;;;;;;;45.92;7.13;;;5.90;99.90;;;;;;5049420;28;20812;-76
2022/01/18 03:04:32;;;;;;;53.05;6.65;;;6.00;99.90;;;;;;5065101;28;20422;-75
2022/01/18 03:06:59;;;;;;;54.58;7.15;;;6.10;99.90;;;;;;5048771;28;20478;-76
2022/01/18 03:09:24;;;;;;;42.58;6.88;;;6.10;99.90;;;;;;5049124;28;20407;-75
2022/01/18 03:11:50;;;;;;;45.87;6.87;;;6.10;99.90;;;;;;5065805;28;20414;-76
2022/01/18 03:14:16;;;;;;;;;;;6.10;99.90;;;;;;5067232;28;20128;-76
2022/01/18 03:16:41;;;;;;;;;;;6.20;99.90;;;;;;5070448;28;20011;-76
2022/01/18 03:19:07;;;;;;;;;;;6.20;99.90;;;;;;5072308;28;20298;-76
2022/01/18 03:21:32;;;;;;;;;;;6.20;99.90;;;;;;5072367;28;19924;-76
2022/01/18 03:29:40;;;;;;;;;;;6.30;99.90;;;;;;5070961;28;19931;-76
2022/01/18 03:32:06;;;;;;;;;;;6.20;99.90;;;;;;5071532;28;20534;-76
2022/01/18 03:34:32;;;;;;;;;;;6.30;99.90;;;;;;5068810;28;20367;-76
2022/01/18 03:36:58;;;;;;;;;;;6.30;99.90;;;;;;5091163;28;19973;-76
2022/01/18 03:39:24;;;;;;;;;;;6.30;99.90;;;;;;5091459;28;20370;-76
2022/01/18 03:41:54;;;;;;;;;;;6.30;99.90;;;;;;5069273;28;19931;-76
2022/01/18 03:44:22;;;;;;;;;;;6.40;99.90;;;;;;5070924;28;19927;-76
2022/01/18 03:46:49;;;;;;;;;;;6.40;99.90;;;;;;5070633;28;19974;-76
2022/01/18 03:49:14;;;;;;;;;;;6.40;99.90;;;;;;5070989;28;19920;-76
2022/01/18 03:51:40;;;;;;;;;;;6.40;99.90;;;;;;5053744;28;20035;-76
2022/01/18 03:54:06;;;;;;;;;;;6.40;99.90;;;;;;5053953;28;19928;-76
2022/01/18 03:56:31;;;;;;;;;;;6.40;99.90;;;;;;5070569;28;20312;-76
2022/01/18 03:58:57;;;;;;;;;;;6.50;99.90;;;;;;5059199;28;19920;-76
2022/01/18 04:01:22;;;;;;;;;;;6.50;99.90;;;;;;5090714;28;19920;-76
2022/01/18 04:03:48;;;;;;;;;;;6.50;99.90;;;;;;5090429;28;19920;-76
2022/01/18 04:06:13;;;;;;;;;;;6.50;99.90;;;;;;5092013;28;19963;-76
2022/01/18 04:08:39;;;;;;;;;;;6.50;99.90;;;;;;5090335;28;19928;-76
2022/01/18 04:11:05;;;;;;;;;;;6.50;99.90;;;;;;5090585;28;19920;-77
2022/01/18 04:13:33;;;;;;;;;;;6.50;99.90;;;;;;5091613;28;19931;-76
2022/01/18 04:15:59;;;;;;;;;;;6.50;99.90;;;;;;5091928;28;19966;-76
2022/01/18 04:18:34;;;;;;;;;;;6.50;99.90;;;;;;5091554;28;19920;-76
2022/01/18 04:28:57;;;;;;;;;;;6.60;99.90;;;;;;5089769;28;19927;-76
2022/01/18 04:31:27;;;;;;;;;;;6.60;99.90;;;;;;5090468;28;19966;-76
2022/01/18 04:33:52;;;;;;;;;;;6.50;99.90;;;;;;5078765;28;20006;-77
2022/01/18 04:36:18;;;;;;;;;;;6.50;99.90;;;;;;5069717;28;20038;-76
2022/01/18 04:38:44;;;;;;;;;;;6.60;99.90;;;;;;5070065;28;19931;-76
2022/01/18 04:41:13;;;;;;;;;;;6.60;99.90;;;;;;5053769;28;19920;-76
2022/01/18 04:43:53;;;;;;;;;;;6.60;99.90;;;;;;5070579;28;19920;-76
2022/01/18 04:49:04;;;;;;;;;;;6.50;99.90;;;;;;5070948;28;19928;-76
2022/01/18 04:51:30;;;;;;;;;;;6.60;99.90;;;;;;5070741;28;19920;-76
2022/01/18 04:53:58;;;;;;;;;;;6.50;99.90;;;;;;5070367;28;19974;-76
2022/01/18 04:59:13;;;;;;;;;;;6.50;99.90;;;;;;5051137;28;19927;-77
2022/01/18 05:01:40;;;;;;;;;;;6.50;99.90;;;;;;5070525;28;20015;-76
2022/01/18 05:04:06;;;;;;;;;;;6.50;99.90;;;;;;5070366;28;20404;-76
2022/01/18 05:06:31;;;;;;;;;;;6.50;99.90;;;;;;5070134;28;20007;-76
2022/01/18 05:09:00;;;;;;;;;;;6.50;99.90;;;;;;5070040;28;19927;-76
2022/01/18 05:11:28;;;;;;;;;;;6.50;99.90;;;;;;5070006;28;19924;-76
2022/01/18 05:19:11;;;;;;;;;;;6.50;99.90;;;;;;5069666;28;19920;-76
2022/01/18 05:24:17;;;;;;;;;;;6.50;99.90;;;;;;5069831;28;19974;-76
2022/01/18 05:26:43;;;;;;;;;;;6.50;99.90;;;;;;5069759;28;19971;-76
2022/01/18 05:29:08;;;;;;;;;;;6.50;99.90;;;;;;5069399;28;19930;-76
2022/01/18 05:31:34;;;;;;;;;;;6.50;99.90;;;;;;5069640;28;19959;-77
2022/01/18 05:34:00;;;;;;;;;;;6.50;99.90;;;;;;5082339;28;20374;-76
2022/01/18 05:36:27;;;;;;;;;;;6.40;99.90;;;;;;5089803;28;20283;-76
2022/01/18 05:38:52;;;;;;;;;;;6.50;99.90;;;;;;5089746;28;19946;-76
2022/01/18 05:41:18;;;;;;;;;;;6.40;99.90;;;;;;5089867;28;19920;-76
2022/01/18 05:43:44;;;;;;;;;;;6.50;99.90;;;;;;5072629;28;19950;-76
2022/01/18 05:46:09;;;;;;;;;;;6.40;99.90;;;;;;5090015;28;19919;-76
2022/01/18 05:48:35;;;;;;;;;;;6.40;99.90;;;;;;5089443;28;20018;-76
2022/01/18 05:51:00;;;;;;;;;;;6.40;99.90;;;;;;5089905;28;19965;-76
2022/01/18 05:53:38;;;;;;;;;;;6.50;99.90;;;;;;5089267;28;20329;-76
2022/01/18 05:56:04;;;;;;;;;;;6.40;99.90;;;;;;5072670;28;19920;-76
2022/01/18 05:58:30;;;;;;;;;;;6.50;99.90;;;;;;5089307;28;20626;-76
2022/01/18 06:00:55;;;;;;;;;;;6.50;99.90;;;;;;5090780;28;19920;-76
2022/01/18 06:03:28;;;;;;;;;;;6.50;99.90;;;;;;5072795;28;20029;-76
2022/01/18 06:08:41;;;;;;;;;;;6.50;99.90;;;;;;5088655;28;19977;-76
2022/01/18 06:11:07;;;;;;;;;;;6.50;99.90;;;;;;5072627;28;19926;-76
2022/01/18 06:13:33;;;;;;;;;;;6.40;99.90;;;;;;5072069;28;19920;-76
2022/01/18 06:15:58;;;;;;;;;;;6.50;99.90;;;;;;5089626;28;19994;-77
2022/01/18 06:18:24;;;;;;;;;;;6.50;99.90;;;;;;5089888;28;19999;-76
2022/01/18 06:20:49;;;;;;;;;;;6.40;99.90;;;;;;5090020;28;19919;-77
2022/01/18 06:23:15;;;;;;;;;;;6.40;99.90;;;;;;5089089;28;19924;-76
2022/01/18 06:25:41;;;;;;;;;;;6.40;99.90;;;;;;5088873;28;19949;-76
2022/01/18 06:28:07;;;;;;;;;;;6.40;99.90;;;;;;5088964;28;19978;-77
2022/01/18 06:30:32;;;;;;;;;;;6.40;99.90;;;;;;5088670;28;20507;-76
2022/01/18 06:32:58;;;;;;;;;;;6.40;99.90;;;;;;5086021;28;19927;-77
2022/01/18 06:35:23;;;;;;;;;;;6.40;99.90;;;;;;5068703;28;20000;-77
2022/01/18 06:37:49;;;;;;;;;;;6.40;99.90;;;;;;5051898;28;19924;-76
2022/01/18 06:40:14;;;;;;;;;;;6.40;99.90;;;;;;5068307;28;19972;-76
2022/01/18 06:42:40;;;;;;;;;;;6.40;99.90;;;;;;5068796;28;19930;-76
2022/01/18 06:45:07;;;;;;;;;;;6.40;99.90;;;;;;5068837;28;19924;-76
2022/01/18 06:47:32;;;;;;;;;;;6.40;99.90;;;;;;5068520;28;20283;-76
2022/01/18 06:49:58;;;;;;;;;;;6.40;99.90;;;;;;5067384;28;19927;-76
2022/01/18 06:52:23;;;;;;;;;;;6.40;99.90;;;;;;5070032;28;19921;-76
2022/01/18 06:54:49;;;;;;;;;;;6.40;99.90;;;;;;5068435;28;20558;-76
2022/01/18 06:57:14;;;;;;;;;;;6.40;99.90;;;;;;5068840;28;20014;-77
2022/01/18 06:59:40;;;;;;;;;;;6.40;99.90;;;;;;5069368;28;20015;-73
2022/01/18 07:02:05;;;;;;;;;;;6.40;99.90;;;;;;5069948;28;20011;-75
2022/01/18 07:04:31;;;;;;;;;;;6.40;99.90;;;;;;5069649;28;20007;-73
2022/01/18 07:06:57;;;;;;;;;;;6.30;99.90;;;;;;5069635;28;20396;-73
2022/01/18 07:09:25;;;;;;;;;;;6.30;99.90;;;;;;5063521;28;20428;-73
2022/01/18 07:11:52;;;;;;;;;;;6.30;99.90;;;;;;5061661;28;19927;-74
2022/01/18 07:14:18;;;;;;;;;;;6.30;99.90;;;;;;5067376;28;19927;-74
2022/01/18 07:16:43;;;;;;;;;;;6.30;99.90;;;;;;5067746;28;19924;-74
2022/01/18 07:19:09;;;;;;;;;;;6.20;99.90;;;;;;5068656;28;19925;-74
2022/01/18 07:21:34;;;;;;;;;;;6.20;99.90;;;;;;5068159;28;19927;-76
2022/01/18 07:24:16;;;;;;;;;;;6.20;99.90;;;;;;5068377;28;19924;-74
2022/01/18 07:26:42;;;;;;;;;;;6.20;99.90;;;;;;5059056;28;19931;-75
2022/01/18 07:29:07;;;;;;;;;;;6.20;99.90;;;;;;5067147;28;19920;-75
2022/01/18 07:31:33;;;;;;;;;;;6.20;99.90;;;;;;5066150;28;19927;-75
2022/01/18 07:33:58;;;;;;;;;;;6.20;99.90;;;;;;5077248;28;19921;-74
2022/01/18 07:36:24;;;;;;;;;;;6.20;99.90;;;;;;5068908;28;19921;-75
2022/01/18 07:38:50;;;;;;;;;;;6.20;99.90;;;;;;5067388;28;20298;-74
2022/01/18 07:41:15;;;;;;;;;;;6.20;99.90;;;;;;5067995;28;19973;-75
2022/01/18 07:43:41;;;;;;;;;;;6.20;99.90;;;;;;5067619;28;20298;-75
2022/01/18 07:46:07;;;;;;;;;;;6.20;99.90;;;;;;5066619;28;20634;-75
2022/01/18 07:48:32;;;;;;;;;;;6.20;99.90;;;;;;5067013;28;20409;-75
2022/01/18 07:50:58;;;;;;;;;;;6.20;99.90;;;;;;5050795;28;20499;-75
2022/01/18 07:53:24;;;;;;;;;;;6.20;99.90;;;;;;5068253;28;19927;-75
2022/01/18 07:55:50;;;;;;;;;;;6.20;99.90;;;;;;5066944;28;19974;-75
2022/01/18 07:58:15;;;;;;;;;;;6.20;99.90;;;;;;5067768;28;19940;-74
2022/01/18 08:00:41;;;;;;;;;;;6.20;99.90;;;;;;5066945;28;19931;-75
2022/01/18 08:03:08;;;;;;;;;;;6.20;99.90;;;;;;5069288;28;19920;-75
2022/01/18 08:05:33;;;;;;;;;;;6.20;99.90;;;;;;5069806;28;19928;-75
2022/01/18 08:07:59;;;;;;;;;;;6.20;99.90;;;;;;5071384;28;19924;-75
2022/01/18 08:10:30;;;;;;;;;;;6.20;99.90;;;;;;5071485;28;20337;-75
2022/01/18 08:13:01;;;;;;;;;;;6.20;99.90;;;;;;5071791;28;19943;-75
2022/01/18 08:15:28;;;;;;;;;;;6.20;99.90;;;;;;5071125;28;20051;-75
2022/01/18 08:17:54;;;;;;;;;;;6.30;99.90;;;;;;5070701;28;19963;-75
2022/01/18 08:20:21;;;;;;;;;;;6.30;99.90;;;;;;5071035;28;20009;-75
2022/01/18 08:22:46;;;;;;;;;;;6.30;99.90;;;;;;5070884;28;19927;-75
2022/01/18 08:25:13;;;;;;;;;;;6.30;99.90;;;;;;5069315;28;19921;-75
2022/01/18 08:27:39;;;;;;;;;;;6.30;99.90;;;;;;5053293;28;19990;-75
2022/01/18 08:30:06;;;;;;;;;;;6.30;99.90;;;;;;5069545;28;19924;-75
2022/01/18 08:32:32;;;;;;;;;;;6.30;99.90;;;;;;5069785;28;20022;-75
2022/01/18 08:34:57;;;;;;;;;;;6.40;99.90;;;;;;5056005;28;19994;-75
2022/01/18 08:37:23;;;;;;;;;;;6.40;99.90;;;;;;5049325;28;19921;-75
2022/01/18 08:39:48;;;;;;;;;;;6.40;99.90;;;;;;5059361;28;19921;-75
2022/01/18 08:42:14;;;;;;;;;;;6.50;99.90;;;;;;5069651;28;19921;-75
2022/01/18 08:44:43;;;;;;;;;;;6.40;99.90;;;;;;5069528;28;19927;-75
2022/01/18 08:47:12;;;;;;;;;;;6.50;99.90;;;;;;5068404;28;19920;-75
2022/01/18 08:49:38;;;;;;;;;;;6.50;99.90;;;;;;5069330;28;19924;-75
2022/01/18 08:52:03;;;;;;;;;;;6.50;99.90;;;;;;5069479;28;19931;-75
2022/01/18 08:54:29;;;;;;;;;;;6.50;99.90;;;;;;5068648;28;19920;-75
2022/01/18 08:56:54;;;;;;;;;;;6.50;99.90;;;;;;5069633;28;19959;-75
2022/01/18 08:59:20;;;;;;;;;;;6.50;99.90;;;;;;5069325;28;19928;-75
2022/01/18 09:01:46;;;;;;;;;;;6.50;99.90;;;;;;5069499;28;19971;-75
2022/01/18 09:04:11;;;;;;;;;;;6.60;99.90;;;;;;5068653;28;20424;-75
2022/01/18 09:06:38;;;;;;;;;;;6.50;99.90;;;;;;5068316;28;19924;-75
2022/01/18 09:09:05;;;;;;;;;;;6.60;99.90;;;;;;5069066;28;19920;-75
2022/01/18 09:11:31;;;;;;;;;;;6.60;99.90;;;;;;5070035;28;19920;-75
2022/01/18 09:13:57;;;;;;;;;;;6.70;99.90;;;;;;5069404;28;19927;-75
2022/01/18 09:16:22;;;;;;;;;;;6.70;99.90;;;;;;5068663;28;19920;-74
2022/01/18 09:18:50;;;;;;;;;;;6.70;99.90;;;;;;5052095;28;19971;-75
2022/01/18 09:21:16;;;;;;;;;;;6.80;99.90;;;;;;5068917;28;19924;-75
2022/01/18 09:23:42;;;;;;;;;;;6.80;99.90;;;;;;5068810;28;19973;-75
2022/01/18 09:26:08;;;;;;;;;;;6.80;99.90;;;;;;5068914;28;19978;-75
2022/01/18 09:28:34;;;;;;;;;;;6.80;99.90;;;;;;5069094;28;20359;-75
2022/01/18 09:31:00;;;;;;;;;;;6.90;99.90;;;;;;5069290;28;19927;-75
2022/01/18 09:33:26;;;;;;;;;;;6.90;99.90;;;;;;5070171;28;19963;-75
2022/01/18 09:35:51;;;;;;;;;;;6.90;99.90;;;;;;5069585;28;20023;-75
2022/01/18 09:38:17;;;;;;;;;;;7.00;99.90;;;;;;5069483;28;20345;-75
2022/01/18 09:40:44;;;;;;;;;;;7.00;99.90;;;;;;5052849;28;20366;-75
2022/01/18 09:43:13;;;;;;;;;;;7.10;99.90;;;;;;5069735;28;19924;-75
2022/01/18 09:45:41;;;;;;;;;;;7.10;99.90;;;;;;5069150;28;19921;-75
2022/01/18 09:48:07;;;;;;;;;;;7.20;99.90;;;;;;5068792;28;20007;-75
2022/01/18 09:50:34;;;;;;;;;;;7.20;99.90;;;;;;5070333;28;20015;-75
2022/01/18 09:53:00;;;;;;;;;;;7.20;99.90;;;;;;5069188;28;19920;-75
2022/01/18 09:55:27;;;;;;;;;;;7.30;99.90;;;;;;5068905;28;19970;-75
2022/01/18 09:57:53;;;;;;;;;;;7.30;99.90;;;;;;5069487;28;19927;-75
2022/01/18 10:00:20;;;;;;;;;;;7.30;99.90;;;;;;5069685;28;19920;-75
2022/01/18 10:02:46;;;;;;;;;;;7.20;99.90;;;;;;5068967;28;19924;-75
2022/01/18 10:05:22;;;;;;;;;;;7.20;99.90;;;;;;5068152;28;20386;-75
2022/01/18 10:08:17;;;;;;;;;;;7.20;99.90;;;;;;5061989;28;19928;-73
2022/01/18 10:10:50;;;;;;;;;;;7.20;99.90;;;;;;5051982;28;20367;-73
2022/01/18 10:13:17;;;;;;;;;;;7.20;99.90;;;;;;5070517;28;20042;-74
2022/01/18 10:16:02;;;;;;;;;;;7.30;99.90;;;;;;5070091;28;19921;-74
2022/01/18 10:18:44;;;;;;;;;;;7.30;99.90;;;;;;5069957;28;19924;-73
2022/01/18 10:21:11;;;;;;;12.10;3.55;;;7.40;99.90;;;;;;5072574;28;19924;-73
2022/01/18 10:23:38;;;;;;;18.40;4.93;;;7.50;99.90;;;;;;5076326;28;20407;-74
2022/01/18 10:26:15;;;;;;;18.00;4.57;;;7.50;99.90;;;;;;5069093;28;20428;-74
2022/01/18 10:28:41;;;;;;;17.23;3.92;;;7.60;99.90;;;;;;5087213;28;20534;-74
2022/01/18 10:31:38;;;;;;;14.60;4.37;;;7.60;99.90;;;;;;5081838;28;20824;-74
2022/01/18 10:37:02;;;;;;;;;;;7.70;99.90;;;;;;5089456;28;19927;-74
2022/01/18 10:39:29;;;;;;;;;;;7.80;99.90;;;;;;5088549;28;19931;-74
2022/01/18 10:41:55;;;;;;;;;;;7.90;99.90;;;;;;5077143;28;19927;-74
2022/01/18 10:44:23;;;;;;;;;;;8.00;99.90;;;;;;5068952;28;20459;-75
2022/01/18 10:46:48;;;;;;;;;;;8.10;99.90;;;;;;5068248;28;19921;-75
2022/01/18 10:49:35;;;;;;;;;;;8.20;99.90;;;;;;5068618;28;19920;-75
2022/01/18 10:52:04;;;;;;;;;;;8.40;99.90;;;;;;5068345;28;19924;-75
2022/01/18 10:54:36;;;;;;;;;;;8.60;99.90;;;;;;5069626;28;19920;-75
2022/01/18 10:57:06;;;;;;;;;;;8.60;99.90;;;;;;5068733;28;19939;-75
2022/01/18 10:59:31;;;;;;;;;;;8.70;99.90;;;;;;5068341;28;19921;-75
2022/01/18 11:02:23;;;;;;;;;;;8.60;99.90;;;;;;5068195;28;19924;-75
2022/01/18 11:04:50;;;;;;;;;;;8.50;99.90;;;;;;5064448;28;19996;-75
2022/01/18 11:07:20;;;;;;;;;;;8.40;99.90;;;;;;5068008;28;19920;-74
2022/01/18 11:09:46;;;;;;;;;;;8.30;99.90;;;;;;5070012;28;20005;-75
2022/01/18 11:12:12;;;;;;;;;;;8.30;99.90;;;;;;5068399;28;19924;-74
2022/01/18 11:14:39;;;;;;;;;;;8.20;99.90;;;;;;5067751;28;20223;-75
2022/01/18 11:17:06;;;;;;;;;;;8.20;99.90;;;;;;5068735;28;20339;-74
2022/01/18 11:19:35;;;;;;;;;;;8.20;99.90;;;;;;5068317;28;19927;-75
2022/01/18 11:22:02;;;;;;;;;;;8.20;99.90;;;;;;5068230;28;19931;-75
2022/01/18 11:24:29;;;;;;;;;;;8.10;99.90;;;;;;5069432;28;19920;-75
2022/01/18 11:26:55;;;;;;;;;;;8.10;99.90;;;;;;5068001;28;19920;-75
2022/01/18 11:29:21;;;;;;;;;;;8.10;99.90;;;;;;5067814;28;19927;-75
2022/01/18 11:31:48;;;;;;;;;;;8.00;99.90;;;;;;5067987;28;19928;-75
2022/01/18 11:34:16;;;;;;;;;;;8.00;99.90;;;;;;5082521;28;19931;-75
2022/01/18 11:36:46;;;;;;;;;;;8.20;99.90;;;;;;5081107;28;19924;-75
2022/01/18 11:39:12;;;;;;;;;;;8.60;99.90;;;;;;5071544;28;19927;-75
2022/01/18 11:41:38;;;;;;;;;;;9.00;99.90;;;;;;5071273;28;19924;-75
2022/01/18 11:44:19;;;;;;;;;;;9.00;99.90;;;;;;5072005;28;20031;-74
2022/01/18 11:46:52;;;;;;;;;;;9.00;99.90;;;;;;5071564;28;19924;-74
2022/01/18 11:49:26;;;;;;;;;;;8.90;99.90;;;;;;5072208;28;20003;-74
2022/01/18 11:51:55;;;;;;;;;;;8.70;99.90;;;;;;5073211;28;20271;-75
2022/01/18 11:54:23;;;;;;;;;;;8.50;99.90;;;;;;5071790;28;19963;-75
2022/01/18 11:56:49;;;;;;;;;;;8.40;99.90;;;;;;5071768;28;19927;-74
2022/01/18 11:59:22;;;;;;;;;;;8.30;99.90;;;;;;5071593;28;19928;-74
2022/01/18 12:01:51;;;;;;;;;;;8.20;99.90;;;;;;5069904;28;20742;-75
2022/01/18 12:04:35;;;;;;;;;;;8.20;99.90;;;;;;5069458;28;19998;-74
2022/01/18 12:07:01;;;;;;;;;;;8.10;99.90;;;;;;5071240;28;20018;-74
2022/01/18 12:09:40;;;;;;;;;;;8.20;99.90;;;;;;5070192;28;20345;-74
2022/01/18 12:12:26;;;;;;;;;;;8.20;99.90;;;;;;5070097;28;19931;-75
2022/01/18 12:14:51;;;;;;;;;;;8.20;99.90;;;;;;5071358;28;19924;-75
2022/01/18 12:17:17;;;;;;;;;;;8.20;99.90;;;;;;5067375;28;19928;-75
2022/01/18 12:19:44;;;;;;;;;;;8.20;99.90;;;;;;5069630;28;19947;-75
2022/01/18 12:22:10;;;;;;;;;;;8.30;99.90;;;;;;5072572;28;19931;-75
2022/01/18 12:24:36;;;;;;;;;;;8.30;99.90;;;;;;5072128;28;19931;-75
2022/01/18 12:27:20;;;;;;;;;;;8.20;99.90;;;;;;5071866;28;19921;-76
2022/01/18 12:30:14;;;;;;;;;;;8.20;99.90;;;;;;5054136;28;21022;-76
2022/01/18 12:32:56;;;;;;;;;;;8.10;99.90;;;;;;5072253;28;19995;-76
2022/01/18 12:35:23;;;;;;;;;;;8.10;99.90;;;;;;5091173;28;19927;-76
2022/01/18 12:37:49;;;;;;;;;;;8.00;99.90;;;;;;5066046;28;19997;-76
2022/01/18 12:40:22;;;;;;;;;;;7.90;99.90;;;;;;5071152;28;19966;-76
2022/01/18 12:45:26;;;;;;;;;;;7.90;99.90;;;;;;5070898;28;19920;-76
2022/01/18 12:47:58;;;;;;;;;;;7.90;99.90;;;;;;5053499;28;20349;-76
2022/01/18 12:50:24;;;;;;;;;;;7.90;99.90;;;;;;5070798;28;19967;-74
2022/01/18 12:53:04;;;;;;;;;;;7.90;99.90;;;;;;5070562;28;19974;-74
2022/01/18 12:55:45;;;;;;;;;;;8.00;99.90;;;;;;5072065;28;20425;-74
2022/01/18 12:58:17;;;;;;;;;;;8.00;99.90;;;;;;5070133;28;20303;-75
2022/01/18 13:00:45;;;;;;;;;;;7.90;99.90;;;;;;5054096;28;19920;-74
2022/01/18 13:03:18;;;;;;;;;;;7.90;99.90;;;;;;5054281;28;19924;-75
2022/01/18 13:05:45;;;;;;;;;;;7.90;99.90;;;;;;5070526;28;19924;-74
2022/01/18 13:08:12;;;;;;;;;;;7.90;99.90;;;;;;5069719;28;19925;-74
2022/01/18 13:10:58;;;;;;;;;;;7.80;99.90;;;;;;5070003;28;19928;-74
2022/01/18 13:13:29;;;;;;;;;;;7.70;99.90;;;;;;5069251;28;20588;-75
2022/01/18 13:26:27;;;;;;;;;;;7.60;99.90;;;;;;5069467;28;19932;-74
2022/01/18 13:28:52;;;;;;;;;;;7.50;99.90;;;;;;5053268;28;20374;-74
2022/01/18 13:31:19;;;;;;;;;;;7.60;99.90;;;;;;5069769;28;20014;-75
2022/01/18 13:33:51;;;;;;;;;;;7.60;99.90;;;;;;5079914;28;20383;-75
2022/01/18 13:36:17;;;;;;;;;;;7.60;99.90;;;;;;5075492;28;19985;-75
2022/01/18 13:38:42;;;;;;;;;;;7.60;99.90;;;;;;5069113;28;20386;-75
2022/01/18 13:41:08;;;;;;;;;;;7.60;99.90;;;;;;5069316;28;19920;-75
2022/01/18 13:43:34;;;;;;;;;;;7.60;99.90;;;;;;5052610;28;19920;-75
2022/01/18 13:45:59;;;;;;;;;;;7.70;99.90;;;;;;5069626;28;19943;-75
2022/01/18 13:48:29;;;;;;;;;;;7.80;99.90;;;;;;5068890;28;19920;-75
2022/01/18 13:50:58;;;;;;;;;;;7.80;99.90;;;;;;5053159;28;19920;-75
2022/01/18 13:53:28;;;;;;;;;;;7.70;99.90;;;;;;5069077;28;19995;-75
2022/01/18 13:55:55;;;;;;;;;;;7.70;99.90;;;;;;5068807;28;19921;-75
2022/01/18 13:58:26;;;;;;;;;;;7.70;99.90;;;;;;5069173;28;19924;-75
2022/01/18 14:00:52;;;;;;;;;;;7.70;99.90;;;;;;5070651;28;19920;-75
2022/01/18 14:03:29;;;;;;;;;;;7.60;99.90;;;;;;5069927;28;19962;-75
2022/01/18 14:05:55;;;;;;;;;;;7.60;99.90;;;;;;5032415;28;19983;-75
2022/01/18 14:08:20;;;;;;;;;;;7.60;99.90;;;;;;5049084;28;19968;-75
2022/01/18 14:10:58;;;;;;;;;;;7.60;99.90;;;;;;5058335;28;20396;-75
2022/01/18 14:13:28;;;;;;;;;;;7.60;99.90;;;;;;5068421;28;19975;-75
2022/01/18 14:15:54;;;;;;;;;;;7.80;99.90;;;;;;5069439;28;19920;-75
2022/01/18 14:18:19;;;;;;;;;;;8.10;99.90;;;;;;5070162;28;19931;-76
2022/01/18 14:20:45;;;;;;;;;;;8.10;99.90;;;;;;5069851;28;19924;-75
2022/01/18 14:23:18;;;;;;;;;;;8.10;99.90;;;;;;5068781;28;19928;-74
2022/01/18 14:25:43;;;;;;;;;;;8.10;99.90;;;;;;5068515;28;19928;-75
2022/01/18 14:28:14;;;;;;;;;;;8.20;99.90;;;;;;5051913;28;20275;-73
2022/01/18 14:30:42;;;;;;;;;;;8.20;99.90;;;;;;5068407;28;20442;-73
2022/01/18 14:33:08;;;;;;;;;;;8.20;99.90;;;;;;5068340;28;19928;-73
2022/01/18 14:35:36;;;;;;;;;;;8.10;99.90;;;;;;5068836;28;19924;-74
2022/01/18 14:38:04;;;;;;;;;;;8.00;99.90;;;;;;5068583;28;20015;-74
2022/01/18 14:40:34;;;;;;;;;;;7.90;99.90;;;;;;5068025;28;19924;-74
2022/01/18 14:43:05;;;;;;;;;;;7.80;99.90;;;;;;5068540;28;19970;-74
2022/01/18 14:48:05;;;;;;;;;;;7.70;99.90;;;;;;5068076;28;19924;-74
2022/01/18 14:50:31;;;;;;;;;;;7.60;99.90;;;;;;5051448;28;20015;-75
2022/01/18 14:52:56;;;;;;;;;;;7.50;99.90;;;;;;5069504;28;20015;-75
2022/01/18 14:55:24;;;;;;;;;;;7.50;99.90;;;;;;5069405;28;19931;-74
2022/01/18 14:57:49;;;;;;;;;;;7.40;99.90;;;;;;5052013;28;19968;-74
2022/01/18 15:00:17;;;;;;;;;;;7.40;99.90;;;;;;5051917;28;19986;-74
2022/01/18 15:02:43;;;;;;;;;;;7.40;99.90;;;;;;5068302;28;19972;-74
2022/01/18 15:05:09;;;;;;;;;;;7.40;99.90;;;;;;5068041;28;19964;-74
2022/01/18 15:07:35;;;;;;;;;;;7.30;99.90;;;;;;5067896;28;20306;-74
2022/01/18 15:10:04;;;;;;;;;;;7.30;99.90;;;;;;5068494;28;19925;-74
2022/01/18 15:12:29;;;;;;;;;;;7.30;99.90;;;;;;5071870;28;19971;-74
2022/01/18 15:14:55;;;;;;;;;;;7.30;99.90;;;;;;5072675;28;20421;-75
2022/01/18 15:17:20;;;;;;;;;;;7.20;99.90;;;;;;5071848;28;20327;-74
2022/01/18 15:19:45;;;;;;;;;;;7.10;99.90;;;;;;5072381;28;19924;-75
2022/01/18 15:22:11;;;;;;;;;;;7.10;99.90;;;;;;5073938;28;19931;-74
2022/01/18 15:24:38;;;;;;;;;;;7.10;99.90;;;;;;5071728;28;20006;-75
2022/01/18 15:27:04;;;;;;;23.38;5.43;;;7.00;99.90;;;;;;5054432;28;20322;-75
2022/01/18 15:29:31;;;;;;;17.55;7.10;;;6.90;99.90;;;;;;5070906;28;20041;-74
2022/01/18 15:31:58;;;;;;;19.52;5.82;;;6.80;99.90;;;;;;5071029;28;20048;-74
2022/01/18 15:34:25;;;;;;;19.65;6.22;;;6.70;99.90;;;;;;5088848;28;20426;-75
2022/01/18 15:36:51;;;;;;;17.27;7.25;;;6.60;99.90;;;;;;5090286;28;20074;-74
2022/01/18 15:39:16;;;;;;;18.83;6.57;;;6.60;99.90;;;;;;5070951;28;20519;-74
2022/01/18 15:41:42;;;;;;;;;;;6.50;99.90;;;;;;5054691;28;20049;-77
2022/01/18 15:44:08;;;;;;;;;;;6.40;99.90;;;;;;5072270;28;20286;-75
2022/01/18 15:46:34;;;;;;;;;;;6.40;99.90;;;;;;5071949;28;19970;-75
2022/01/18 15:48:59;;;;;;;;;;;6.30;99.90;;;;;;5071079;28;20374;-75
2022/01/18 15:51:25;;;;;;;16.63;7.07;;;6.20;99.90;;;;;;5070771;28;19994;-75
2022/01/18 15:53:52;;;;;;;18.15;6.03;;;6.20;99.90;;;;;;5070964;28;20076;-75
2022/01/18 15:56:19;;;;;;;21.38;6.30;;;6.10;99.90;;;;;;5071358;28;20048;-75